createdAt,value
2019-04-28T00:01:01.659Z,100189.31
2019-04-28T00:03:47.658Z,100191.49
2019-04-28T00:06:33.337Z,100187.66
2019-04-28T00:09:21.332Z,100188.52
2019-04-28T00:12:07.697Z,100188.05
2019-04-28T00:14:53.466Z,100182.90
2019-04-28T00:17:41.903Z,100182.04
2019-04-28T00:20:52.897Z,100181.61
2019-04-28T00:24:04.705Z,100178.56
2019-04-28T00:26:53.848Z,100182.04
2019-04-28T00:29:43.870Z,100179.85
2019-04-28T00:32:28.302Z,100177.27
2019-04-28T00:35:14.110Z,100181.56
2019-04-28T00:38:01.428Z,100184.58
2019-04-28T00:40:49.006Z,100181.14
2019-04-28T00:43:34.437Z,100182.86
2019-04-28T00:46:24.280Z,100189.73
2019-04-28T00:49:11.927Z,100183.71
2019-04-28T00:51:58.002Z,100181.14
2019-04-28T00:54:45.046Z,100174.21
2019-04-28T00:57:31.250Z,100175.55
2019-04-28T01:00:19.070Z,100175.55
2019-04-28T01:03:04.602Z,100175.98
2019-04-28T01:05:50.866Z,100182.04
2019-04-28T01:08:37.113Z,100184.58
2019-04-28T01:11:23.238Z,100180.27
2019-04-28T01:14:08.993Z,100178.13
2019-04-28T01:17:19.805Z,100180.32
2019-04-28T01:20:09.798Z,100178.56
2019-04-28T01:22:55.876Z,100178.61
2019-04-28T01:25:42.293Z,100175.98
2019-04-28T01:28:29.751Z,100173.45
2019-04-28T01:31:39.610Z,100177.70
2019-04-28T01:34:25.362Z,100177.31
2019-04-28T01:37:11.576Z,100175.16
2019-04-28T01:39:59.567Z,100173.41
2019-04-28T01:42:45.489Z,100178.08
2019-04-28T01:45:30.959Z,100177.69
2019-04-28T01:48:17.687Z,100180.66
2019-04-28T01:51:03.210Z,100179.42
2019-04-28T01:53:50.475Z,100185.87
2019-04-28T01:56:37.059Z,100184.58
2019-04-28T01:59:22.871Z,100187.16
2019-04-28T02:02:10.237Z,100189.30
2019-04-28T02:04:56.379Z,100191.49
2019-04-28T02:07:41.870Z,100197.08
2019-04-28T02:10:27.566Z,100196.19
2019-04-28T02:13:14.040Z,100193.64
2019-04-28T02:16:00.914Z,100199.19
2019-04-28T02:18:46.511Z,100200.09
2019-04-28T02:21:41.835Z,100199.22
2019-04-28T02:24:30.528Z,100200.52
2019-04-28T02:27:16.314Z,100205.23
2019-04-28T02:30:02.310Z,100206.10
2019-04-28T02:32:51.616Z,100207.39
2019-04-28T02:35:35.851Z,100211.25
2019-04-28T02:38:26.367Z,100211.69
2019-04-28T02:41:12.164Z,100216.81
2019-04-28T02:43:57.867Z,100215.09
2019-04-28T02:46:44.207Z,100216.44
2019-04-28T02:49:43.673Z,100216.84
2019-04-28T02:52:47.890Z,100222.83
2019-04-28T02:55:33.369Z,100229.30
2019-04-28T02:58:22.111Z,100232.28
2019-04-28T03:01:18.553Z,100240.02
2019-04-28T03:03:54.620Z,100237.44
2019-04-28T03:06:41.098Z,100235.74
2019-04-28T03:09:30.403Z,100244.34
2019-04-28T03:12:15.308Z,100240.87
2019-04-28T03:15:01.014Z,100242.59
2019-04-28T03:17:47.272Z,100243.03
2019-04-28T03:20:33.763Z,100242.13
2019-04-28T03:23:20.695Z,100243.48
2019-04-28T03:26:23.425Z,100250.77
2019-04-28T03:29:32.029Z,100252.92
2019-04-28T03:32:52.867Z,100258.48
2019-04-28T03:35:32.832Z,100255.49
2019-04-28T03:38:21.379Z,100255.08
2019-04-28T03:41:07.144Z,100253.37
2019-04-28T03:43:53.103Z,100252.48
2019-04-28T03:46:44.791Z,100255.09
2019-04-28T03:49:32.112Z,100257.19
2019-04-28T03:52:20.992Z,100252.94
2019-04-28T03:55:06.197Z,100259.81
2019-04-28T03:57:52.061Z,100257.64
2019-04-28T04:00:40.618Z,100260.66
2019-04-28T04:03:25.115Z,100260.23
2019-04-28T04:06:10.803Z,100261.52
2019-04-28T04:08:56.598Z,100258.52
2019-04-28T04:11:50.872Z,100267.53
2019-04-28T04:15:05.057Z,100263.25
2019-04-28T04:18:11.088Z,100261.53
2019-04-28T04:20:56.810Z,100267.52
2019-04-28T04:23:42.427Z,100268.83
2019-04-28T04:26:32.879Z,100265.39
2019-04-28T04:29:16.915Z,100269.70
2019-04-28T04:32:15.702Z,100263.67
2019-04-28T04:34:50.881Z,100272.26
2019-04-28T04:37:40.640Z,100276.98
2019-04-28T04:40:27.149Z,100278.27
2019-04-28T04:43:12.573Z,100281.30
2019-04-28T04:46:22.122Z,100271.84
2019-04-28T04:49:07.000Z,100281.73
2019-04-28T04:51:53.106Z,100288.59
2019-04-28T04:54:40.100Z,100286.44
2019-04-28T04:57:26.317Z,100294.60
2019-04-28T05:00:17.676Z,100293.77
2019-04-28T05:03:10.613Z,100292.02
2019-04-28T05:05:56.580Z,100297.61
2019-04-28T05:08:42.503Z,100299.75
2019-04-28T05:11:29.987Z,100297.18
2019-04-28T05:14:16.053Z,100299.34
2019-04-28T05:17:02.408Z,100306.20
2019-04-28T05:19:49.698Z,100308.78
2019-04-28T05:22:42.643Z,100308.35
2019-04-28T05:25:34.260Z,100301.49
2019-04-28T05:28:20.379Z,100308.36
2019-04-28T05:31:06.336Z,100307.48
2019-04-28T05:33:51.944Z,100311.75
2019-04-28T05:36:42.474Z,100312.18
2019-04-28T05:39:25.959Z,100311.78
2019-04-28T05:42:11.792Z,100313.08
2019-04-28T05:44:59.800Z,100322.08
2019-04-28T05:47:45.579Z,100323.70
2019-04-28T05:50:36.991Z,100325.08
2019-04-28T05:53:30.122Z,100328.56
2019-04-28T05:56:23.685Z,100334.58
2019-04-28T05:59:13.553Z,100335.36
2019-04-28T06:02:12.182Z,100338.87
2019-04-28T06:04:59.933Z,100339.28
2019-04-28T06:08:11.601Z,100349.13
2019-04-28T06:10:57.224Z,100343.15
2019-04-28T06:13:42.913Z,100342.72
2019-04-28T06:16:30.483Z,100350.00
2019-04-28T06:19:16.493Z,100342.28
2019-04-28T06:22:02.048Z,100351.23
2019-04-28T06:24:48.082Z,100349.60
2019-04-28T06:27:33.550Z,100357.73
2019-04-28T06:30:20.089Z,100358.55
2019-04-28T06:33:08.116Z,100364.45
2019-04-28T06:35:55.409Z,100365.95
2019-04-28T06:38:40.947Z,100369.31
2019-04-28T06:41:27.046Z,100374.42
2019-04-28T06:44:12.924Z,100379.58
2019-04-28T06:46:59.545Z,100375.28
2019-04-28T06:49:45.322Z,100378.66
2019-04-28T06:52:31.220Z,100384.59
2019-04-28T06:55:17.314Z,100387.67
2019-04-28T06:58:03.509Z,100388.97
2019-04-28T07:00:49.093Z,100391.92
2019-04-28T07:03:35.803Z,100391.84
2019-04-28T07:06:21.652Z,100394.58
2019-04-28T07:09:07.426Z,100398.47
2019-04-28T07:11:53.737Z,100397.52
2019-04-28T07:14:39.437Z,100401.72
2019-04-28T07:17:25.185Z,100402.97
2019-04-28T07:20:28.882Z,100404.64
2019-04-28T07:23:14.459Z,100408.50
2019-04-28T07:26:00.825Z,100406.37
2019-04-28T07:28:47.056Z,100410.74
2019-04-28T07:31:33.565Z,100416.30
2019-04-28T07:34:20.269Z,100407.48
2019-04-28T07:37:07.038Z,100411.62
2019-04-28T07:39:52.875Z,100415.14
2019-04-28T07:42:39.657Z,100414.61
2019-04-28T07:45:25.738Z,100419.22
2019-04-28T07:48:11.568Z,100424.73
2019-04-28T07:50:58.077Z,100422.23
2019-04-28T07:53:48.183Z,100428.73
2019-04-28T07:56:33.856Z,100428.70
2019-04-28T07:59:20.187Z,100425.65
2019-04-28T08:02:06.023Z,100434.64
2019-04-28T08:04:51.733Z,100439.35
2019-04-28T08:07:37.650Z,100431.77
2019-04-28T08:10:23.594Z,100438.70
2019-04-28T08:13:11.890Z,100437.13
2019-04-28T08:15:58.070Z,100444.44
2019-04-28T08:18:43.582Z,100441.11
2019-04-28T08:21:29.364Z,100447.86
2019-04-28T08:24:17.213Z,100453.93
2019-04-28T08:27:03.624Z,100453.96
2019-04-28T08:29:58.281Z,100447.89
2019-04-28T08:32:53.062Z,100449.64
2019-04-28T08:35:38.922Z,100451.25
2019-04-28T08:38:25.442Z,100455.31
2019-04-28T08:41:10.966Z,100458.38
2019-04-28T08:43:56.721Z,100457.56
2019-04-28T08:46:42.493Z,100461.05
2019-04-28T08:49:27.986Z,100457.27
2019-04-28T08:52:13.791Z,100463.20
2019-04-28T08:54:59.782Z,100465.73
2019-04-28T08:57:45.534Z,100478.84
2019-04-28T09:00:31.174Z,100479.17
2019-04-28T09:03:16.973Z,100467.93
2019-04-28T09:06:03.716Z,100469.15
2019-04-28T09:08:49.156Z,100476.08
2019-04-28T09:11:35.166Z,100470.59
2019-04-28T09:14:21.015Z,100472.77
2019-04-28T09:17:06.534Z,100477.21
2019-04-28T09:19:53.566Z,100478.94
2019-04-28T09:22:39.218Z,100483.33
2019-04-28T09:25:25.983Z,100482.90
2019-04-28T09:28:14.189Z,100486.55
2019-04-28T09:31:01.650Z,100483.72
2019-04-28T09:33:50.022Z,100486.41
2019-04-28T09:36:38.654Z,100493.06
2019-04-28T09:40:02.435Z,100495.05
2019-04-28T09:43:06.586Z,100492.08
2019-04-28T09:45:57.892Z,100493.83
2019-04-28T09:48:44.498Z,100498.48
2019-04-28T09:51:31.343Z,100490.64
2019-04-28T09:54:17.451Z,100496.44
2019-04-28T09:57:03.748Z,100491.19
2019-04-28T09:59:49.214Z,100490.21
2019-04-28T10:02:34.891Z,100500.58
2019-04-28T10:05:24.736Z,100502.91
2019-04-28T10:08:10.546Z,100503.12
2019-04-28T10:10:56.355Z,100498.36
2019-04-28T10:13:45.793Z,100505.63
2019-04-28T10:16:32.563Z,100510.45
2019-04-28T10:19:18.718Z,100512.13
2019-04-28T10:22:08.481Z,100514.87
2019-04-28T10:24:54.682Z,100507.67
2019-04-28T10:27:41.221Z,100508.96
2019-04-28T10:30:29.211Z,100515.48
2019-04-28T10:33:14.848Z,100520.59
2019-04-28T10:36:01.616Z,100518.91
2019-04-28T10:38:52.355Z,100511.00
2019-04-28T10:41:39.563Z,100515.69
2019-04-28T10:44:26.487Z,100511.89
2019-04-28T10:47:12.528Z,100508.70
2019-04-28T10:49:58.138Z,100509.67
2019-04-28T10:52:43.728Z,100504.53
2019-04-28T10:55:32.674Z,100506.98
2019-04-28T10:58:18.664Z,100506.81
2019-04-28T11:01:05.315Z,100505.34
2019-04-28T11:03:53.663Z,100499.77
2019-04-28T11:06:39.552Z,100504.87
2019-04-28T11:09:31.395Z,100511.75
2019-04-28T11:12:22.411Z,100506.31
2019-04-28T11:15:11.776Z,100510.65
2019-04-28T11:17:57.513Z,100509.77
2019-04-28T11:20:43.465Z,100513.16
2019-04-28T11:23:29.387Z,100510.63
2019-04-28T11:26:15.199Z,100515.89
2019-04-28T11:29:01.472Z,100510.97
2019-04-28T11:31:47.473Z,100514.09
2019-04-28T11:34:56.039Z,100516.14
2019-04-28T11:37:42.275Z,100519.13
2019-04-28T11:40:28.178Z,100515.25
2019-04-28T11:43:15.291Z,100511.44
2019-04-28T11:46:02.008Z,100514.77
2019-04-28T11:48:47.926Z,100508.06
2019-04-28T11:51:34.208Z,100509.56
2019-04-28T11:54:19.992Z,100509.02
2019-04-28T11:57:05.878Z,100506.17
2019-04-28T11:59:54.107Z,100506.65
2019-04-28T12:02:39.908Z,100502.66
2019-04-28T12:05:34.788Z,100506.50
2019-04-28T12:08:18.340Z,100505.58
2019-04-28T12:11:42.440Z,100508.42
2019-04-28T12:14:36.528Z,100515.14
2019-04-28T12:17:46.145Z,100512.47
2019-04-28T12:20:35.132Z,100517.33
2019-04-28T12:23:20.966Z,100518.95
2019-04-28T12:26:06.387Z,100519.34
2019-04-28T12:28:52.137Z,100521.41
2019-04-28T12:31:39.504Z,100521.87
2019-04-28T12:34:25.324Z,100525.56
2019-04-28T12:37:10.940Z,100524.87
2019-04-28T12:39:57.712Z,100523.52
2019-04-28T12:42:43.216Z,100534.89
2019-04-28T12:45:35.165Z,100541.89
2019-04-28T12:48:17.007Z,100536.35
2019-04-28T12:51:02.687Z,100537.05
2019-04-28T12:53:51.935Z,100542.45
2019-04-28T12:56:37.398Z,100543.92
2019-04-28T12:59:28.614Z,100547.84
2019-04-28T13:02:28.362Z,100556.36
2019-04-28T13:05:14.940Z,100545.85
2019-04-28T13:08:04.156Z,100553.59
2019-04-28T13:10:50.185Z,100550.59
2019-04-28T13:13:36.249Z,100553.38
2019-04-28T13:16:22.252Z,100555.56
2019-04-28T13:19:08.380Z,100555.65
2019-04-28T13:21:54.747Z,100556.16
2019-04-28T13:24:41.317Z,100559.80
2019-04-28T13:27:28.792Z,100563.03
2019-04-28T13:30:15.173Z,100567.17
2019-04-28T13:33:02.114Z,100569.91
2019-04-28T13:35:48.375Z,100564.94
2019-04-28T13:38:35.746Z,100564.66
2019-04-28T13:41:21.951Z,100567.77
2019-04-28T13:44:10.083Z,100568.94
2019-04-28T13:47:13.408Z,100571.52
2019-04-28T13:50:05.623Z,100571.77
2019-04-28T13:52:51.825Z,100568.37
2019-04-28T13:55:59.392Z,100573.19
2019-04-28T13:58:50.113Z,100572.14
2019-04-28T14:01:55.717Z,100576.88
2019-04-28T14:04:50.776Z,100579.48
2019-04-28T14:07:41.681Z,100579.41
2019-04-28T14:10:25.415Z,100580.84
2019-04-28T14:13:15.082Z,100589.80
2019-04-28T14:16:01.013Z,100582.72
2019-04-28T14:18:50.764Z,100587.41
2019-04-28T14:21:36.886Z,100591.66
2019-04-28T14:24:22.731Z,100593.59
2019-04-28T14:27:09.771Z,100590.59
2019-04-28T14:29:55.891Z,100596.34
2019-04-28T14:32:43.388Z,100592.64
2019-04-28T14:35:32.750Z,100601.55
2019-04-28T14:38:19.084Z,100601.02
2019-04-28T14:41:05.619Z,100604.59
2019-04-28T14:43:52.345Z,100610.69
2019-04-28T14:46:38.359Z,100613.64
2019-04-28T14:49:24.373Z,100607.59
2019-04-28T14:52:09.884Z,100604.36
2019-04-28T14:54:56.066Z,100610.17
2019-04-28T14:57:42.489Z,100610.55
2019-04-28T15:00:34.091Z,100616.46
2019-04-28T15:03:20.008Z,100614.13
2019-04-28T15:06:15.427Z,100610.94
2019-04-28T15:09:21.030Z,100611.19
2019-04-28T15:12:07.290Z,100605.20
2019-04-28T15:14:53.238Z,100601.62
2019-04-28T15:17:38.989Z,100606.31
2019-04-28T15:20:24.474Z,100605.38
2019-04-28T15:23:10.652Z,100613.32
2019-04-28T15:25:58.975Z,100614.01
2019-04-28T15:28:44.612Z,100612.94
2019-04-28T15:31:29.966Z,100611.89
2019-04-28T15:34:15.776Z,100615.34
2019-04-28T15:37:10.237Z,100617.80
2019-04-28T15:39:56.339Z,100619.33
2019-04-28T15:42:42.735Z,100621.16
2019-04-28T15:45:30.264Z,100622.80
2019-04-28T15:48:16.126Z,100618.48
2019-04-28T15:51:02.601Z,100618.03
2019-04-28T15:53:48.389Z,100625.20
2019-04-28T15:56:47.404Z,100623.37
2019-04-28T15:59:33.207Z,100627.19
2019-04-28T16:02:19.415Z,100627.78
2019-04-28T16:05:05.505Z,100628.20
2019-04-28T16:07:50.916Z,100629.09
2019-04-28T16:10:36.663Z,100630.09
2019-04-28T16:13:23.016Z,100631.06
2019-04-28T16:16:09.596Z,100639.90
2019-04-28T16:18:55.844Z,100638.42
2019-04-28T16:21:43.544Z,100641.66
2019-04-28T16:24:30.380Z,100645.62
2019-04-28T16:27:16.220Z,100644.97
2019-04-28T16:30:04.403Z,100636.72
2019-04-28T16:32:50.272Z,100645.64
2019-04-28T16:35:37.624Z,100642.91
2019-04-28T16:38:23.592Z,100659.03
2019-04-28T16:41:14.024Z,100659.92
2019-04-28T16:44:04.175Z,100656.59
2019-04-28T16:46:49.862Z,100658.90
2019-04-28T16:49:37.906Z,100666.47
2019-04-28T16:52:24.148Z,100663.50
2019-04-28T16:55:14.417Z,100666.88
2019-04-28T16:58:13.588Z,100660.89
2019-04-28T17:01:19.262Z,100663.05
2019-04-28T17:04:05.286Z,100669.72
2019-04-28T17:06:51.004Z,100679.17
2019-04-28T17:09:36.833Z,100678.01
2019-04-28T17:12:22.305Z,100678.37
2019-04-28T17:15:08.176Z,100684.64
2019-04-28T17:17:53.762Z,100683.68
2019-04-28T17:20:39.257Z,100685.19
2019-04-28T17:23:25.448Z,100689.89
2019-04-28T17:26:11.649Z,100695.13
2019-04-28T17:28:57.642Z,100684.08
2019-04-28T17:31:43.941Z,100689.99
2019-04-28T17:34:31.264Z,100690.38
2019-04-28T17:37:16.891Z,100686.16
2019-04-28T17:40:03.925Z,100686.54
2019-04-28T17:42:50.281Z,100694.75
2019-04-28T17:45:36.465Z,100697.67
2019-04-28T17:48:28.395Z,100699.10
2019-04-28T17:51:14.349Z,100699.49
2019-04-28T17:54:00.169Z,100697.86
2019-04-28T17:56:46.228Z,100705.77
2019-04-28T17:59:35.515Z,100705.87
2019-04-28T18:02:40.049Z,100708.03
2019-04-28T18:05:31.249Z,100720.29
2019-04-28T18:08:21.097Z,100717.34
2019-04-28T18:11:05.205Z,100727.52
2019-04-28T18:13:50.799Z,100734.95
2019-04-28T18:16:56.681Z,100733.98
2019-04-28T18:19:44.645Z,100738.64
2019-04-28T18:22:31.561Z,100742.92
2019-04-28T18:25:17.617Z,100746.97
2019-04-28T18:28:04.031Z,100747.42
2019-04-28T18:31:07.793Z,100747.53
2019-04-28T18:34:09.997Z,100749.69
2019-04-28T18:37:21.772Z,100750.14
2019-04-28T18:40:16.086Z,100759.73
2019-04-28T18:43:11.405Z,100768.78
2019-04-28T18:45:57.276Z,100772.67
2019-04-28T18:48:43.974Z,100776.98
2019-04-28T18:51:44.319Z,100768.84
2019-04-28T18:54:42.546Z,100777.04
2019-04-28T18:57:31.760Z,100777.05
2019-04-28T19:00:20.633Z,100788.27
2019-04-28T19:03:06.739Z,100790.47
2019-04-28T19:05:53.461Z,100798.23
2019-04-28T19:08:49.252Z,100799.98
2019-04-28T19:11:45.287Z,100799.98
2019-04-28T19:14:38.061Z,100802.13
2019-04-28T19:17:42.070Z,100814.62
2019-04-28T19:20:27.910Z,100811.62
2019-04-28T19:23:13.798Z,100814.19
2019-04-28T19:26:00.176Z,100818.95
2019-04-28T19:28:45.680Z,100824.52
2019-04-28T19:31:31.719Z,100830.54
2019-04-28T19:34:18.747Z,100835.31
2019-04-28T19:37:04.954Z,100836.97
2019-04-28T19:39:51.202Z,100842.95
2019-04-28T19:42:38.993Z,100842.53
2019-04-28T19:45:24.730Z,100852.47
2019-04-28T19:48:11.206Z,100851.71
2019-04-28T19:51:01.659Z,100859.04
2019-04-28T19:53:47.510Z,100862.91
2019-04-28T19:56:39.210Z,100859.39
2019-04-28T19:59:35.656Z,100865.77
2019-04-28T20:02:22.031Z,100870.01
2019-04-28T20:05:08.471Z,100870.95
2019-04-28T20:07:54.696Z,100863.68
2019-04-28T20:10:40.613Z,100864.06
2019-04-28T20:13:31.185Z,100867.94
2019-04-28T20:16:16.694Z,100872.96
2019-04-28T20:19:02.759Z,100868.53
2019-04-28T20:21:48.907Z,100881.42
2019-04-28T20:24:46.558Z,100887.84
2019-04-28T20:27:21.956Z,100883.58
2019-04-28T20:30:08.082Z,100890.87
2019-04-28T20:33:06.524Z,100881.00
2019-04-28T20:35:46.906Z,100879.25
2019-04-28T20:38:33.457Z,100892.64
2019-04-28T20:41:22.294Z,100885.49
2019-04-28T20:44:08.061Z,100890.65
2019-04-28T20:46:57.127Z,100883.44
2019-04-28T20:49:43.140Z,100886.83
2019-04-28T20:52:29.428Z,100887.77
2019-04-28T20:55:15.796Z,100886.00
2019-04-28T20:58:01.620Z,100880.92
2019-04-28T21:00:47.844Z,100889.44
2019-04-28T21:03:33.810Z,100890.33
2019-04-28T21:06:19.799Z,100887.09
2019-04-28T21:09:09.497Z,100891.24
2019-04-28T21:11:54.697Z,100896.34
2019-04-28T21:14:40.243Z,100892.13
2019-04-28T21:17:26.331Z,100892.58
2019-04-28T21:20:12.735Z,100896.84
2019-04-28T21:22:59.035Z,100900.52
2019-04-28T21:25:44.509Z,100905.73
2019-04-28T21:28:30.499Z,100904.50
2019-04-28T21:31:16.409Z,100897.95
2019-04-28T21:34:02.157Z,100902.23
2019-04-28T21:36:48.204Z,100899.55
2019-04-28T21:39:34.451Z,100894.80
2019-04-28T21:42:22.810Z,100892.28
2019-04-28T21:45:23.245Z,100896.22
2019-04-28T21:48:09.541Z,100899.29
2019-04-28T21:50:55.473Z,100901.02
2019-04-28T21:53:43.432Z,100902.54
2019-04-28T21:56:29.304Z,100906.89
2019-04-28T21:59:14.895Z,100907.29
2019-04-28T22:02:01.238Z,100910.13
2019-04-28T22:04:47.088Z,100919.08
2019-04-28T22:07:33.337Z,100916.84
2019-04-28T22:10:19.741Z,100922.38
2019-04-28T22:13:07.679Z,100923.75
2019-04-28T22:15:53.567Z,100934.37
2019-04-28T22:18:40.495Z,100931.33
2019-04-28T22:21:26.023Z,100934.31
2019-04-28T22:24:24.547Z,100934.73
2019-04-28T22:27:12.525Z,100937.73
2019-04-28T22:29:58.065Z,100943.95
2019-04-28T22:32:43.957Z,100945.19
2019-04-28T22:35:29.874Z,100939.98
2019-04-28T22:38:15.427Z,100940.39
2019-04-28T22:41:01.217Z,100939.91
2019-04-28T22:43:46.692Z,100944.98
2019-04-28T22:46:32.593Z,100942.76
2019-04-28T22:49:18.469Z,100944.87
2019-04-28T22:52:04.462Z,100947.11
2019-04-28T22:55:11.133Z,100949.20
2019-04-28T22:58:04.704Z,100955.87
2019-04-28T23:01:10.565Z,100960.87
2019-04-28T23:04:25.652Z,100961.66
2019-04-28T23:07:11.653Z,100959.90
2019-04-28T23:09:57.937Z,100962.59
2019-04-28T23:12:43.849Z,100964.28
2019-04-28T23:15:29.485Z,100961.72
2019-04-28T23:18:15.600Z,100964.28
2019-04-28T23:21:06.254Z,100975.03
2019-04-28T23:23:52.198Z,100974.92
2019-04-28T23:26:38.152Z,100970.09
2019-04-28T23:29:23.869Z,100973.42
2019-04-28T23:32:09.538Z,100966.48
2019-04-28T23:34:55.404Z,100969.95
2019-04-28T23:37:41.182Z,100975.07
2019-04-28T23:40:27.141Z,100979.33
2019-04-28T23:43:17.713Z,100974.93
2019-04-28T23:46:03.414Z,100972.80
2019-04-28T23:48:49.242Z,100979.59
2019-04-28T23:51:41.734Z,100982.14
2019-04-28T23:54:27.658Z,100981.78
2019-04-28T23:57:13.410Z,100983.73
2019-04-28T23:59:59.694Z,100985.89
